createdAt,value
2022-11-06T00:00:27.871Z,13.30
2022-11-06T00:02:59.074Z,13.30
2022-11-06T00:05:46.299Z,13.30
2022-11-06T00:08:14.153Z,13.40
2022-11-06T00:10:41.930Z,13.40
2022-11-06T00:13:09.221Z,13.40
2022-11-06T00:15:36.484Z,13.40
2022-11-06T00:18:06.098Z,13.40
2022-11-06T00:20:33.373Z,13.50
2022-11-06T00:23:03.708Z,13.40
2022-11-06T00:25:31.064Z,13.50
2022-11-06T00:27:58.349Z,13.50
2022-11-06T00:30:25.654Z,13.40
2022-11-06T00:32:52.884Z,13.50
2022-11-06T00:35:20.149Z,13.50
2022-11-06T00:37:47.404Z,13.50
2022-11-06T00:40:14.690Z,13.50
2022-11-06T00:42:41.933Z,13.40
2022-11-06T00:45:11.851Z,13.40
2022-11-06T00:47:39.211Z,13.40
2022-11-06T00:50:07.026Z,13.40
2022-11-06T00:52:34.303Z,13.40
2022-11-06T00:55:04.418Z,13.30
2022-11-06T00:57:32.276Z,13.30
2022-11-06T01:00:01.899Z,13.30
2022-11-06T01:02:29.488Z,13.30
2022-11-06T01:04:58.946Z,13.20
2022-11-06T01:07:28.489Z,13.20
2022-11-06T01:09:55.771Z,13.20
2022-11-06T01:12:23.111Z,13.10
2022-11-06T01:14:55.737Z,13.20
2022-11-06T01:17:23.106Z,13.10
2022-11-06T01:19:50.399Z,13.10
2022-11-06T01:22:17.685Z,13.10
2022-11-06T01:24:45.051Z,13.00
2022-11-06T01:27:27.973Z,13.00
2022-11-06T01:29:55.868Z,13.00
2022-11-06T01:32:23.133Z,12.90
2022-11-06T01:34:53.029Z,12.90
2022-11-06T01:37:20.349Z,12.90
2022-11-06T01:39:50.309Z,12.90
2022-11-06T01:42:20.729Z,12.90
2022-11-06T01:45:32.190Z,12.90
2022-11-06T01:48:02.378Z,12.90
2022-11-06T01:50:32.876Z,12.90
2022-11-06T01:53:02.488Z,12.90
2022-11-06T01:55:35.623Z,12.90
2022-11-06T01:58:05.317Z,12.90
2022-11-06T02:00:32.953Z,12.90
2022-11-06T02:03:00.993Z,12.90
2022-11-06T02:05:31.288Z,13.00
2022-11-06T02:08:00.507Z,13.00
2022-11-06T02:10:29.004Z,13.00
2022-11-06T02:13:05.433Z,13.00
2022-11-06T02:15:36.080Z,13.00
2022-11-06T02:18:18.437Z,13.00
2022-11-06T02:21:15.912Z,13.00
2022-11-06T02:23:55.501Z,13.00
2022-11-06T02:26:53.355Z,13.00
2022-11-06T02:29:36.837Z,13.00
2022-11-06T02:32:12.135Z,12.90
2022-11-06T02:34:41.149Z,12.90
2022-11-06T02:37:13.735Z,12.90
2022-11-06T02:39:43.845Z,12.80
2022-11-06T02:42:14.731Z,12.80
2022-11-06T02:44:43.292Z,12.80
2022-11-06T02:47:12.553Z,12.80
2022-11-06T02:49:49.451Z,12.80
2022-11-06T02:52:22.265Z,12.80
2022-11-06T02:54:55.705Z,12.80
2022-11-06T02:57:25.419Z,12.70
2022-11-06T03:00:11.097Z,12.70
2022-11-06T03:02:57.745Z,12.70
2022-11-06T03:05:41.670Z,12.60
2022-11-06T03:08:18.158Z,12.60
2022-11-06T03:11:09.669Z,12.60
2022-11-06T03:13:49.687Z,12.60
2022-11-06T03:16:31.821Z,12.60
2022-11-06T03:19:26.231Z,12.60
2022-11-06T03:22:02.348Z,12.60
2022-11-06T03:24:59.089Z,12.50
2022-11-06T03:27:37.205Z,12.60
2022-11-06T03:30:15.241Z,12.60
2022-11-06T03:32:49.285Z,12.60
2022-11-06T03:35:29.274Z,12.60
2022-11-06T03:38:05.497Z,12.50
2022-11-06T03:40:37.934Z,12.60
2022-11-06T03:43:08.715Z,12.50
2022-11-06T03:45:39.196Z,12.60
2022-11-06T03:48:32.120Z,12.60
2022-11-06T03:51:13.288Z,12.50
2022-11-06T03:53:52.260Z,12.60
2022-11-06T03:56:22.359Z,12.60
2022-11-06T03:58:50.913Z,12.60
2022-11-06T04:01:25.054Z,12.60
2022-11-06T04:04:18.549Z,12.60
2022-11-06T04:07:02.211Z,12.60
2022-11-06T04:09:51.762Z,12.70
2022-11-06T04:12:43.242Z,12.60
2022-11-06T04:15:19.030Z,12.70
2022-11-06T04:17:46.331Z,12.70
2022-11-06T04:20:38.960Z,12.70
2022-11-06T04:23:20.708Z,12.70
2022-11-06T04:26:18.481Z,12.70
2022-11-06T04:28:54.659Z,12.70
2022-11-06T04:31:55.966Z,12.70
2022-11-06T04:34:35.725Z,12.70
2022-11-06T04:37:28.530Z,12.80
2022-11-06T04:40:14.336Z,12.70
2022-11-06T04:42:56.597Z,12.80
2022-11-06T04:45:42.834Z,12.80
2022-11-06T04:48:11.940Z,12.80
2022-11-06T04:50:50.146Z,12.80
2022-11-06T04:53:19.969Z,12.80
2022-11-06T04:55:52.921Z,12.80
2022-11-06T04:58:20.197Z,12.80
2022-11-06T05:00:52.709Z,12.80
2022-11-06T05:03:20.298Z,12.80
2022-11-06T05:05:47.606Z,12.90
2022-11-06T05:08:16.991Z,12.90
2022-11-06T05:10:47.465Z,12.90
2022-11-06T05:13:20.017Z,12.90
2022-11-06T05:15:47.356Z,12.80
2022-11-06T05:18:17.225Z,12.90
2022-11-06T05:20:44.549Z,12.90
2022-11-06T05:23:11.810Z,12.90
2022-11-06T05:25:40.445Z,12.90
2022-11-06T05:28:11.202Z,12.80
2022-11-06T05:30:38.697Z,12.80
2022-11-06T05:33:10.707Z,12.80
2022-11-06T05:35:37.961Z,12.80
2022-11-06T05:38:05.273Z,12.80
2022-11-06T05:40:32.623Z,12.70
2022-11-06T05:42:59.955Z,12.70
2022-11-06T05:45:27.302Z,12.70
2022-11-06T05:47:54.821Z,12.70
2022-11-06T05:50:24.736Z,12.70
2022-11-06T05:52:52.001Z,12.60
2022-11-06T05:55:19.243Z,12.60
2022-11-06T05:57:46.559Z,12.60
2022-11-06T06:00:14.547Z,12.60
2022-11-06T06:02:42.070Z,12.60
2022-11-06T06:05:10.323Z,12.60
2022-11-06T06:07:37.678Z,12.60
2022-11-06T06:10:08.296Z,12.60
2022-11-06T06:12:35.757Z,12.60
2022-11-06T06:15:03.122Z,12.50
2022-11-06T06:17:30.414Z,12.60
2022-11-06T06:19:57.720Z,12.60
2022-11-06T06:22:25.010Z,12.60
2022-11-06T06:24:52.546Z,12.50
2022-11-06T06:27:22.340Z,12.60
2022-11-06T06:29:49.742Z,12.50
2022-11-06T06:32:19.755Z,12.60
2022-11-06T06:34:47.074Z,12.50
2022-11-06T06:37:17.689Z,12.50
2022-11-06T06:39:49.662Z,12.50
2022-11-06T06:42:16.948Z,12.50
2022-11-06T06:44:46.559Z,12.50
2022-11-06T06:47:16.918Z,12.50
2022-11-06T06:49:44.955Z,12.50
2022-11-06T06:52:15.284Z,12.60
2022-11-06T06:54:42.537Z,12.50
2022-11-06T06:57:09.972Z,12.50
2022-11-06T06:59:39.617Z,12.50
2022-11-06T07:02:09.412Z,12.50
2022-11-06T07:04:36.724Z,12.50
2022-11-06T07:07:04.048Z,12.60
2022-11-06T07:09:32.086Z,12.60
2022-11-06T07:12:01.934Z,12.60
2022-11-06T07:14:29.225Z,12.60
2022-11-06T07:16:59.001Z,12.60
2022-11-06T07:19:26.281Z,12.60
2022-11-06T07:21:53.946Z,12.60
2022-11-06T07:24:21.338Z,12.50
2022-11-06T07:26:48.643Z,12.60
2022-11-06T07:29:18.145Z,12.60
2022-11-06T07:31:45.482Z,12.60
2022-11-06T07:34:12.810Z,12.60
2022-11-06T07:36:40.113Z,12.60
2022-11-06T07:39:09.944Z,12.60
2022-11-06T07:41:37.947Z,12.60
2022-11-06T07:44:07.673Z,12.60
2022-11-06T07:46:34.960Z,12.60
2022-11-06T07:49:02.305Z,12.60
2022-11-06T07:51:29.781Z,12.60
2022-11-06T07:53:57.302Z,12.60
2022-11-06T07:56:24.646Z,12.60
2022-11-06T07:58:54.790Z,12.60
2022-11-06T08:01:22.322Z,12.60
2022-11-06T08:03:49.652Z,12.60
2022-11-06T08:06:19.160Z,12.60
2022-11-06T08:08:46.548Z,12.70
2022-11-06T08:11:19.153Z,12.70
2022-11-06T08:13:46.483Z,12.70
2022-11-06T08:16:14.971Z,12.60
2022-11-06T08:18:42.451Z,12.70
2022-11-06T08:21:11.950Z,12.70
2022-11-06T08:23:39.253Z,12.70
2022-11-06T08:26:07.449Z,12.70
2022-11-06T08:28:35.437Z,12.70
2022-11-06T08:31:06.864Z,12.70
2022-11-06T08:33:37.691Z,12.70
2022-11-06T08:36:06.946Z,12.70
2022-11-06T08:38:34.642Z,12.80
2022-11-06T08:41:10.524Z,12.70
2022-11-06T08:43:38.429Z,12.80
2022-11-06T08:46:07.718Z,12.80
2022-11-06T08:48:35.344Z,12.80
2022-11-06T08:51:04.442Z,12.90
2022-11-06T08:53:31.877Z,12.80
2022-11-06T08:55:59.674Z,12.90
2022-11-06T08:58:29.625Z,12.90
2022-11-06T09:00:59.194Z,12.90
2022-11-06T09:03:26.658Z,12.90
2022-11-06T09:05:56.547Z,13.00
2022-11-06T09:08:24.323Z,13.00
2022-11-06T09:10:57.255Z,13.00
2022-11-06T09:13:26.361Z,13.00
2022-11-06T09:15:53.655Z,13.00
2022-11-06T09:18:21.038Z,13.00
2022-11-06T09:20:48.314Z,13.00
2022-11-06T09:23:16.115Z,13.00
2022-11-06T09:25:43.675Z,13.00
2022-11-06T09:28:11.391Z,13.10
2022-11-06T09:30:38.691Z,13.00
2022-11-06T09:33:10.601Z,13.10
2022-11-06T09:35:41.005Z,13.00
2022-11-06T09:38:11.574Z,13.10
2022-11-06T09:40:58.252Z,13.10
2022-11-06T09:44:16.768Z,13.10
2022-11-06T09:46:46.261Z,13.10
2022-11-06T09:49:35.167Z,13.10
2022-11-06T09:52:11.820Z,13.20
2022-11-06T09:54:56.149Z,13.10
2022-11-06T09:57:54.343Z,13.10
2022-11-06T10:00:21.958Z,13.20
2022-11-06T10:03:17.150Z,13.20
2022-11-06T10:05:48.066Z,13.20
2022-11-06T10:08:27.023Z,13.20
2022-11-06T10:11:07.911Z,13.20
2022-11-06T10:14:00.547Z,13.20
2022-11-06T10:16:36.192Z,13.30
2022-11-06T10:19:12.097Z,13.30
2022-11-06T10:22:07.909Z,13.30
2022-11-06T10:24:50.413Z,13.30
2022-11-06T10:27:23.921Z,13.30
2022-11-06T10:30:19.958Z,13.40
2022-11-06T10:32:56.182Z,13.40
2022-11-06T10:35:44.545Z,13.40
2022-11-06T10:38:23.590Z,13.40
2022-11-06T10:40:53.744Z,13.40
2022-11-06T10:43:23.784Z,13.40
2022-11-06T10:46:17.617Z,13.50
2022-11-06T10:48:49.862Z,13.50
2022-11-06T10:51:26.531Z,13.50
2022-11-06T10:54:14.194Z,13.50
2022-11-06T10:57:09.506Z,13.50
2022-11-06T10:59:37.014Z,13.60
2022-11-06T11:02:05.578Z,13.60
2022-11-06T11:04:33.119Z,13.60
2022-11-06T11:07:21.405Z,13.50
2022-11-06T11:09:50.727Z,13.60
2022-11-06T11:12:25.490Z,13.60
2022-11-06T11:15:19.910Z,13.60
2022-11-06T11:18:08.387Z,13.60
2022-11-06T11:20:43.025Z,13.60
2022-11-06T11:23:18.059Z,13.60
2022-11-06T11:26:14.659Z,13.60
2022-11-06T11:28:42.053Z,13.60
2022-11-06T11:31:15.723Z,13.60
2022-11-06T11:33:55.031Z,13.60
2022-11-06T11:36:23.136Z,13.60
2022-11-06T11:38:51.627Z,13.60
2022-11-06T11:41:24.518Z,13.60
2022-11-06T11:44:04.639Z,13.60
2022-11-06T11:46:33.183Z,13.60
2022-11-06T11:49:03.328Z,13.60
2022-11-06T11:51:33.683Z,13.70
2022-11-06T11:54:28.788Z,13.70
2022-11-06T11:57:05.199Z,13.70
2022-11-06T11:59:36.824Z,13.80
2022-11-06T12:02:14.853Z,13.80
2022-11-06T12:04:45.621Z,13.90
2022-11-06T12:07:24.984Z,14.00
2022-11-06T12:09:52.454Z,14.00
2022-11-06T12:12:26.655Z,14.10
2022-11-06T12:15:08.729Z,14.10
2022-11-06T12:17:39.839Z,14.20
2022-11-06T12:20:16.746Z,14.20
2022-11-06T12:22:46.618Z,14.30
2022-11-06T12:25:33.289Z,14.30
2022-11-06T12:28:05.984Z,14.30
2022-11-06T12:30:35.229Z,14.40
2022-11-06T12:33:11.618Z,14.40
2022-11-06T12:36:04.424Z,14.40
2022-11-06T12:38:37.958Z,14.40
2022-11-06T12:41:16.446Z,14.50
2022-11-06T12:43:45.660Z,14.50
2022-11-06T12:46:28.123Z,14.50
2022-11-06T12:49:17.254Z,14.50
2022-11-06T12:52:08.187Z,14.50
2022-11-06T12:54:50.331Z,14.50
2022-11-06T12:57:35.987Z,14.50
2022-11-06T13:00:18.982Z,14.50
2022-11-06T13:03:17.438Z,14.50
2022-11-06T13:05:52.707Z,14.50
2022-11-06T13:08:49.883Z,14.50
2022-11-06T13:11:19.956Z,14.50
2022-11-06T13:14:22.000Z,14.40
2022-11-06T13:16:53.564Z,14.40
2022-11-06T13:19:35.814Z,14.40
2022-11-06T13:22:09.323Z,14.40
2022-11-06T13:24:50.459Z,14.40
2022-11-06T13:27:37.343Z,14.30
2022-11-06T13:30:22.470Z,14.30
2022-11-06T13:33:10.679Z,14.30
2022-11-06T13:35:41.007Z,14.30
2022-11-06T13:38:14.317Z,14.20
2022-11-06T13:40:48.308Z,14.20
2022-11-06T13:43:25.649Z,14.20
2022-11-06T13:46:25.461Z,14.20
2022-11-06T13:49:02.583Z,14.20
2022-11-06T13:51:41.962Z,14.20
2022-11-06T13:54:30.343Z,14.20
2022-11-06T13:57:00.725Z,14.20
2022-11-06T13:59:42.778Z,14.20
2022-11-06T14:02:26.392Z,14.20
2022-11-06T14:05:27.699Z,14.20
2022-11-06T14:07:56.349Z,14.20
2022-11-06T14:10:34.241Z,14.30
2022-11-06T14:13:02.715Z,14.30
2022-11-06T14:15:38.433Z,14.20
2022-11-06T14:18:21.149Z,14.20
2022-11-06T14:20:51.901Z,14.30
2022-11-06T14:23:31.124Z,14.20
2022-11-06T14:26:11.504Z,14.20
2022-11-06T14:28:43.930Z,14.30
2022-11-06T14:31:31.682Z,14.20
2022-11-06T14:34:03.055Z,14.30
2022-11-06T14:36:34.735Z,14.30
2022-11-06T14:39:03.797Z,14.30
2022-11-06T14:41:38.397Z,14.30
2022-11-06T14:44:07.509Z,14.30
2022-11-06T14:46:34.791Z,14.30
2022-11-06T14:49:25.437Z,14.30
2022-11-06T14:52:25.591Z,14.30
2022-11-06T14:54:57.506Z,14.30
2022-11-06T14:57:52.228Z,14.30
2022-11-06T15:00:37.088Z,14.20
2022-11-06T15:03:18.316Z,14.20
2022-11-06T15:05:51.059Z,14.20
2022-11-06T15:08:57.184Z,14.20
2022-11-06T15:11:32.965Z,14.20
2022-11-06T15:14:04.631Z,14.20
2022-11-06T15:16:43.426Z,14.20
2022-11-06T15:19:36.294Z,14.20
2022-11-06T15:22:18.403Z,14.20
2022-11-06T15:24:54.765Z,14.20
2022-11-06T15:27:27.126Z,14.20
2022-11-06T15:29:58.555Z,14.20
2022-11-06T15:32:28.014Z,14.20
2022-11-06T15:35:09.450Z,14.10
2022-11-06T15:37:45.645Z,14.10
2022-11-06T15:40:23.577Z,14.10
2022-11-06T15:42:53.758Z,14.10
2022-11-06T15:45:24.660Z,14.10
2022-11-06T15:47:59.129Z,14.10
2022-11-06T15:50:40.273Z,14.10
2022-11-06T15:53:13.688Z,14.10
2022-11-06T15:55:53.330Z,14.10
2022-11-06T15:58:24.710Z,14.10
2022-11-06T16:00:56.893Z,14.00
2022-11-06T16:03:30.414Z,14.00
2022-11-06T16:06:01.703Z,14.00
2022-11-06T16:08:31.212Z,14.00
2022-11-06T16:11:02.607Z,14.00
2022-11-06T16:13:33.283Z,13.90
2022-11-06T16:16:04.761Z,13.90
2022-11-06T16:18:32.072Z,13.90
2022-11-06T16:21:20.678Z,13.90
2022-11-06T16:23:55.286Z,13.90
2022-11-06T16:26:25.474Z,13.90
2022-11-06T16:28:54.831Z,13.80
2022-11-06T16:31:25.464Z,13.90
2022-11-06T16:34:06.266Z,13.80
2022-11-06T16:36:50.027Z,13.80
2022-11-06T16:39:17.247Z,13.80
2022-11-06T16:42:03.507Z,13.80
2022-11-06T16:44:38.750Z,13.80
2022-11-06T16:47:12.100Z,13.70
2022-11-06T16:49:50.245Z,13.70
2022-11-06T16:52:31.756Z,13.70
2022-11-06T16:55:05.398Z,13.70
2022-11-06T16:57:42.741Z,13.70
2022-11-06T17:00:22.070Z,13.70
2022-11-06T17:02:53.710Z,13.70
2022-11-06T17:05:22.541Z,13.60
2022-11-06T17:08:14.030Z,13.70
2022-11-06T17:10:43.412Z,13.60
2022-11-06T17:13:21.512Z,13.70
2022-11-06T17:15:54.406Z,13.60
2022-11-06T17:18:24.711Z,13.60
2022-11-06T17:20:54.869Z,13.60
2022-11-06T17:23:25.726Z,13.60
2022-11-06T17:25:57.947Z,13.60
2022-11-06T17:28:25.244Z,13.50
2022-11-06T17:30:52.685Z,13.50
2022-11-06T17:33:20.002Z,13.50
2022-11-06T17:35:49.150Z,13.50
2022-11-06T17:38:18.858Z,13.50
2022-11-06T17:40:47.534Z,13.50
2022-11-06T17:43:14.940Z,13.50
2022-11-06T17:45:48.055Z,13.50
2022-11-06T17:48:18.689Z,13.50
2022-11-06T17:51:04.771Z,13.40
2022-11-06T17:53:34.409Z,13.40
2022-11-06T17:56:06.052Z,13.40
2022-11-06T17:58:34.201Z,13.40
2022-11-06T18:01:10.971Z,13.40
2022-11-06T18:03:44.431Z,13.40
2022-11-06T18:06:13.462Z,13.40
2022-11-06T18:08:40.801Z,13.30
2022-11-06T18:11:08.690Z,13.30
2022-11-06T18:13:37.357Z,13.20
2022-11-06T18:16:14.147Z,13.20
2022-11-06T18:18:41.467Z,13.20
2022-11-06T18:21:08.825Z,13.20
2022-11-06T18:23:37.130Z,13.20
2022-11-06T18:26:07.205Z,13.10
2022-11-06T18:28:34.526Z,13.20
2022-11-06T18:31:02.081Z,13.10
2022-11-06T18:33:31.935Z,13.10
2022-11-06T18:36:11.047Z,13.10
2022-11-06T18:38:39.356Z,13.10
2022-11-06T18:41:17.980Z,13.10
2022-11-06T18:43:45.833Z,13.10
2022-11-06T18:46:18.241Z,13.10
2022-11-06T18:48:46.129Z,13.10
2022-11-06T18:51:32.691Z,13.00
2022-11-06T18:54:06.853Z,13.10
2022-11-06T18:56:36.348Z,13.00
2022-11-06T18:59:06.117Z,13.00
2022-11-06T19:01:36.273Z,13.00
2022-11-06T19:04:05.450Z,13.00
2022-11-06T19:06:33.131Z,13.00
2022-11-06T19:09:02.768Z,13.00
2022-11-06T19:11:30.100Z,13.00
2022-11-06T19:13:57.389Z,13.00
2022-11-06T19:16:24.909Z,12.90
2022-11-06T19:21:32.187Z,12.90
2022-11-06T19:24:03.981Z,12.90
2022-11-06T19:26:35.401Z,12.90
2022-11-06T19:29:04.220Z,12.90
2022-11-06T19:31:33.170Z,12.80
2022-11-06T19:34:01.943Z,12.90
2022-11-06T19:36:31.983Z,12.80
2022-11-06T19:38:59.704Z,12.80
2022-11-06T19:41:30.627Z,12.80
2022-11-06T19:44:00.054Z,12.70
2022-11-06T19:46:33.879Z,12.70
2022-11-06T19:49:07.452Z,12.70
2022-11-06T19:51:37.479Z,12.70
2022-11-06T19:54:05.899Z,12.60
2022-11-06T19:56:33.182Z,12.60
2022-11-06T19:59:05.355Z,12.60
2022-11-06T20:01:34.647Z,12.60
2022-11-06T20:04:02.226Z,12.60
2022-11-06T20:06:31.856Z,12.50
2022-11-06T20:09:01.848Z,12.50
2022-11-06T20:11:29.212Z,12.50
2022-11-06T20:13:58.752Z,12.50
2022-11-06T20:16:27.690Z,12.40
2022-11-06T20:18:57.711Z,12.40
2022-11-06T20:21:28.539Z,12.40
2022-11-06T20:23:57.194Z,12.40
2022-11-06T20:26:24.973Z,12.40
2022-11-06T20:28:52.367Z,12.40
2022-11-06T20:31:20.023Z,12.40
2022-11-06T20:33:48.085Z,12.40
2022-11-06T20:36:19.123Z,12.30
2022-11-06T20:38:47.163Z,12.40
2022-11-06T20:41:17.153Z,12.30
2022-11-06T20:43:46.852Z,12.30
2022-11-06T20:46:19.135Z,12.30
2022-11-06T20:48:50.041Z,12.30
2022-11-06T20:51:21.960Z,12.30
2022-11-06T20:53:49.527Z,12.30
2022-11-06T20:56:25.081Z,12.30
2022-11-06T20:58:56.175Z,12.30
2022-11-06T21:01:27.019Z,12.20
2022-11-06T21:03:56.280Z,12.20
2022-11-06T21:06:24.634Z,12.20
2022-11-06T21:08:53.578Z,12.20
2022-11-06T21:11:24.133Z,12.20
2022-11-06T21:13:53.554Z,12.20
2022-11-06T21:16:33.999Z,12.20
2022-11-06T21:19:02.531Z,12.10
2022-11-06T21:21:37.158Z,12.10
2022-11-06T21:24:04.969Z,12.10
2022-11-06T21:26:40.159Z,12.10
2022-11-06T21:29:10.738Z,12.10
2022-11-06T21:31:48.416Z,12.10
2022-11-06T21:34:16.855Z,12.10
2022-11-06T21:36:47.426Z,12.10
2022-11-06T21:39:19.420Z,12.10
2022-11-06T21:41:47.311Z,12.10
2022-11-06T21:44:18.410Z,12.00
2022-11-06T21:46:46.353Z,12.00
2022-11-06T21:49:14.191Z,12.00
2022-11-06T21:51:41.852Z,12.00
2022-11-06T21:54:29.871Z,12.00
2022-11-06T21:56:57.241Z,11.90
2022-11-06T21:59:26.701Z,11.90
2022-11-06T22:01:57.169Z,11.90
2022-11-06T22:04:27.065Z,11.90
2022-11-06T22:06:54.368Z,11.90
2022-11-06T22:09:25.781Z,11.90
2022-11-06T22:11:53.359Z,11.90
2022-11-06T22:14:20.664Z,11.90
2022-11-06T22:16:48.051Z,12.00
2022-11-06T22:19:17.637Z,11.90
2022-11-06T22:21:47.770Z,11.90
2022-11-06T22:24:15.637Z,11.90
2022-11-06T22:26:43.168Z,11.90
2022-11-06T22:29:14.382Z,11.90
2022-11-06T22:31:44.085Z,11.90
2022-11-06T22:34:12.734Z,11.90
2022-11-06T22:36:42.523Z,11.90
2022-11-06T22:39:13.540Z,11.90
2022-11-06T22:41:43.611Z,11.80
2022-11-06T22:44:12.594Z,11.80
2022-11-06T22:46:40.311Z,11.80
2022-11-06T22:49:07.614Z,11.70
2022-11-06T22:51:35.275Z,11.70
2022-11-06T22:54:03.676Z,11.70
2022-11-06T22:56:32.632Z,11.70
2022-11-06T22:59:07.676Z,11.70
2022-11-06T23:01:41.231Z,11.70
2022-11-06T23:04:16.053Z,11.70
2022-11-06T23:06:45.819Z,11.70
2022-11-06T23:09:13.863Z,11.70
2022-11-06T23:11:41.404Z,11.70
2022-11-06T23:14:11.188Z,11.70
2022-11-06T23:17:00.576Z,11.70
2022-11-06T23:19:30.088Z,11.70
2022-11-06T23:22:16.812Z,11.70
2022-11-06T23:24:48.984Z,11.70
2022-11-06T23:27:16.301Z,11.70
2022-11-06T23:29:46.032Z,11.70
2022-11-06T23:32:13.369Z,11.70
2022-11-06T23:34:40.671Z,11.70
2022-11-06T23:37:09.013Z,11.80
2022-11-06T23:39:36.315Z,11.70
2022-11-06T23:42:03.646Z,11.70
2022-11-06T23:44:49.389Z,11.80
2022-11-06T23:47:16.731Z,11.70
2022-11-06T23:49:46.087Z,11.70
2022-11-06T23:52:13.363Z,11.70
2022-11-06T23:54:40.688Z,11.70
2022-11-06T23:57:11.638Z,11.80
2022-11-06T23:59:38.923Z,11.70
